createdAt,value
2018-09-08T00:00:06.149Z,7.8
2018-09-08T00:01:07.731Z,7.8
2018-09-08T00:02:09.295Z,7.8
2018-09-08T00:03:10.838Z,7.8
2018-09-08T00:04:12.425Z,7.8
2018-09-08T00:05:14.026Z,7.8
2018-09-08T00:06:15.593Z,7.8
2018-09-08T00:07:17.185Z,7.8
2018-09-08T00:08:18.773Z,7.8
2018-09-08T00:09:20.540Z,7.8
2018-09-08T00:10:22.124Z,7.8
2018-09-08T00:11:23.693Z,7.8
2018-09-08T00:12:25.261Z,7.8
2018-09-08T00:13:26.661Z,7.8
2018-09-08T00:14:28.231Z,7.8
2018-09-08T00:15:29.793Z,7.8
2018-09-08T00:16:31.373Z,7.8
2018-09-08T00:17:32.934Z,7.8
2018-09-08T00:18:34.470Z,7.8
2018-09-08T00:19:36.045Z,7.8
2018-09-08T00:20:37.608Z,7.8
2018-09-08T00:21:39.164Z,7.8
2018-09-08T00:22:40.544Z,7.8
2018-09-08T00:23:42.106Z,7.8
2018-09-08T00:24:43.671Z,7.8
2018-09-08T00:25:45.255Z,7.8
2018-09-08T00:26:46.816Z,7.8
2018-09-08T00:27:48.401Z,7.8
2018-09-08T00:28:49.970Z,7.8
2018-09-08T00:29:51.553Z,7.8
2018-09-08T00:30:53.106Z,7.8
2018-09-08T00:31:54.670Z,7.8
2018-09-08T00:32:56.210Z,7.8
2018-09-08T00:33:57.627Z,7.8
2018-09-08T00:34:59.180Z,7.8
2018-09-08T00:36:00.753Z,7.8
2018-09-08T00:37:02.340Z,7.8
2018-09-08T00:38:03.915Z,7.8
2018-09-08T00:39:05.485Z,7.8
2018-09-08T00:40:07.058Z,7.8
2018-09-08T00:41:08.642Z,7.8
2018-09-08T00:42:10.212Z,7.8
2018-09-08T00:43:11.797Z,7.8
2018-09-08T00:44:13.384Z,7.8
2018-09-08T00:45:14.972Z,7.8
2018-09-08T00:46:16.571Z,7.8
2018-09-08T00:47:18.144Z,7.8
2018-09-08T00:48:19.725Z,7.8
2018-09-08T00:49:21.312Z,7.8
2018-09-08T00:50:22.864Z,7.8
2018-09-08T00:51:24.294Z,7.8
2018-09-08T00:52:25.857Z,7.8
2018-09-08T00:53:27.433Z,7.8
2018-09-08T00:54:28.842Z,7.8
2018-09-08T00:55:30.428Z,7.8
2018-09-08T00:56:31.984Z,7.8
2018-09-08T00:57:33.539Z,7.8
2018-09-08T00:58:35.097Z,7.8
2018-09-08T00:59:36.681Z,7.8
2018-09-08T01:00:38.247Z,7.8
2018-09-08T01:01:39.821Z,7.8
2018-09-08T01:02:41.214Z,7.8
2018-09-08T01:03:43.187Z,7.8
2018-09-08T01:04:44.590Z,7.8
2018-09-08T01:05:46.151Z,7.8
2018-09-08T01:06:47.776Z,7.8
2018-09-08T01:07:49.360Z,7.8
2018-09-08T01:08:50.935Z,7.8
2018-09-08T01:09:52.522Z,7.8
2018-09-08T01:10:53.923Z,7.8
2018-09-08T01:11:55.504Z,7.8
2018-09-08T01:12:57.077Z,7.8
2018-09-08T01:13:58.633Z,7.8
2018-09-08T01:15:00.227Z,7.8
2018-09-08T01:16:01.785Z,7.8
2018-09-08T01:17:03.344Z,7.8
2018-09-08T01:18:04.907Z,7.8
2018-09-08T01:19:06.478Z,7.8
2018-09-08T01:20:08.034Z,7.8
2018-09-08T01:21:09.435Z,7.8
2018-09-08T01:22:11.019Z,7.8
2018-09-08T01:23:12.420Z,7.8
2018-09-08T01:24:13.824Z,7.7
2018-09-08T01:25:15.393Z,7.7
2018-09-08T01:26:16.944Z,7.6
2018-09-08T01:27:18.531Z,7.4
2018-09-08T01:28:20.079Z,7.3
2018-09-08T01:29:21.662Z,7.2
2018-09-08T01:30:23.254Z,7.2
2018-09-08T01:31:24.813Z,7.2
2018-09-08T01:32:26.451Z,7.2
2018-09-08T01:33:28.015Z,7.2
2018-09-08T01:34:29.622Z,7.2
2018-09-08T01:35:31.185Z,7.2
2018-09-08T01:36:32.763Z,7.2
2018-09-08T01:37:34.369Z,7.2
2018-09-08T01:38:35.937Z,7.2
2018-09-08T01:39:37.497Z,7.2
2018-09-08T01:40:39.064Z,7.2
2018-09-08T01:41:40.622Z,7.2
2018-09-08T01:42:42.207Z,7.2
2018-09-08T01:43:43.805Z,7.2
2018-09-08T01:44:45.378Z,7.2
2018-09-08T01:45:46.959Z,7.2
2018-09-08T01:46:48.575Z,7.2
2018-09-08T01:47:50.146Z,7.2
2018-09-08T01:48:51.704Z,7.2
2018-09-08T01:49:53.264Z,7.2
2018-09-08T01:50:54.876Z,7.2
2018-09-08T01:51:56.275Z,7.2
2018-09-08T01:52:57.848Z,7.2
2018-09-08T01:53:59.394Z,7.2
2018-09-08T01:55:00.953Z,7.2
2018-09-08T01:56:02.517Z,7.2
2018-09-08T01:57:04.103Z,7.2
2018-09-08T01:58:05.686Z,7.2
2018-09-08T01:59:07.230Z,7.2
2018-09-08T02:00:08.805Z,7.2
2018-09-08T02:01:10.209Z,7.2
2018-09-08T02:02:11.760Z,7.2
2018-09-08T02:03:13.326Z,7.2
2018-09-08T02:04:14.730Z,7.2
2018-09-08T02:05:16.303Z,7.2
2018-09-08T02:06:17.865Z,7.2
2018-09-08T02:07:19.259Z,7.2
2018-09-08T02:08:20.815Z,7.2
2018-09-08T02:09:22.435Z,7.2
2018-09-08T02:10:38.683Z,7.2
2018-09-08T02:11:40.251Z,7.3
2018-09-08T02:12:41.809Z,7.3
2018-09-08T02:13:43.382Z,7.3
2018-09-08T02:14:45.155Z,7.3
2018-09-08T02:15:46.744Z,7.3
2018-09-08T02:16:48.333Z,7.3
2018-09-08T02:17:49.918Z,7.4
2018-09-08T02:18:51.507Z,7.4
2018-09-08T02:19:53.096Z,7.4
2018-09-08T02:20:54.644Z,7.5
2018-09-08T02:21:56.194Z,7.5
2018-09-08T02:22:57.910Z,7.5
2018-09-08T02:23:59.470Z,7.6
2018-09-08T02:25:00.862Z,7.6
2018-09-08T02:26:02.434Z,7.7
2018-09-08T02:27:04.005Z,7.7
2018-09-08T02:28:05.554Z,7.8
2018-09-08T02:29:07.168Z,7.8
2018-09-08T02:30:08.752Z,7.8
2018-09-08T02:31:10.332Z,7.8
2018-09-08T02:32:11.896Z,7.8
2018-09-08T02:33:13.469Z,7.8
2018-09-08T02:34:15.023Z,7.8
2018-09-08T02:35:16.617Z,7.9
2018-09-08T02:36:18.182Z,7.9
2018-09-08T02:37:19.749Z,7.9
2018-09-08T02:38:21.136Z,7.9
2018-09-08T02:39:22.757Z,7.9
2018-09-08T02:40:24.324Z,7.9
2018-09-08T02:41:25.917Z,7.9
2018-09-08T02:42:27.474Z,7.9
2018-09-08T02:43:29.043Z,7.9
2018-09-08T02:44:30.603Z,7.9
2018-09-08T02:45:32.164Z,7.9
2018-09-08T02:46:33.730Z,7.9
2018-09-08T02:47:35.120Z,7.9
2018-09-08T02:48:36.711Z,7.9
2018-09-08T02:49:38.137Z,7.9
2018-09-08T02:50:39.714Z,7.9
2018-09-08T02:51:41.295Z,7.9
2018-09-08T02:52:42.680Z,7.9
2018-09-08T02:53:44.262Z,7.9
2018-09-08T02:54:45.836Z,7.9
2018-09-08T02:55:47.386Z,7.9
2018-09-08T02:56:48.952Z,7.9
2018-09-08T02:57:50.548Z,7.9
2018-09-08T02:58:51.945Z,7.9
2018-09-08T02:59:53.562Z,7.9
2018-09-08T03:00:55.149Z,7.9
2018-09-08T03:01:56.714Z,7.8
2018-09-08T03:02:58.310Z,7.8
2018-09-08T03:03:59.863Z,7.8
2018-09-08T03:05:01.445Z,7.8
2018-09-08T03:06:03.030Z,7.8
2018-09-08T03:07:04.625Z,7.8
2018-09-08T03:08:06.195Z,7.8
2018-09-08T03:09:07.768Z,7.8
2018-09-08T03:10:09.337Z,7.8
2018-09-08T03:11:10.905Z,7.9
2018-09-08T03:12:12.529Z,7.8
2018-09-08T03:13:14.099Z,7.8
2018-09-08T03:14:15.506Z,7.8
2018-09-08T03:15:17.135Z,7.8
2018-09-08T03:16:18.842Z,7.8
2018-09-08T03:17:20.355Z,7.9
2018-09-08T03:18:21.942Z,7.9
2018-09-08T03:19:23.351Z,7.9
2018-09-08T03:20:24.935Z,7.9
2018-09-08T03:21:26.492Z,7.9
2018-09-08T03:22:28.083Z,7.9
2018-09-08T03:23:29.304Z,7.9
2018-09-08T03:24:30.871Z,7.9
2018-09-08T03:25:32.274Z,7.8
2018-09-08T03:26:33.860Z,7.8
2018-09-08T03:27:35.425Z,7.8
2018-09-08T03:28:36.984Z,7.8
2018-09-08T03:29:38.582Z,7.7
2018-09-08T03:30:40.264Z,7.6
2018-09-08T03:31:41.846Z,7.5
2018-09-08T03:32:43.436Z,7.4
2018-09-08T03:33:45.025Z,7.3
2018-09-08T03:34:46.599Z,7.2
2018-09-08T03:35:48.147Z,7.2
2018-09-08T03:36:49.696Z,7.2
2018-09-08T03:37:51.255Z,7.2
2018-09-08T03:38:52.687Z,7.2
2018-09-08T03:39:54.256Z,7.2
2018-09-08T03:40:55.825Z,7.2
2018-09-08T03:41:57.379Z,7.2
2018-09-08T03:42:58.948Z,7.2
2018-09-08T03:44:00.522Z,7.2
2018-09-08T03:45:02.085Z,7.2
2018-09-08T03:46:03.656Z,7.2
2018-09-08T03:47:05.214Z,7.2
2018-09-08T03:48:06.773Z,7.2
2018-09-08T03:49:08.209Z,7.2
2018-09-08T03:50:09.781Z,7.2
2018-09-08T03:51:11.328Z,7.2
2018-09-08T03:52:12.911Z,7.2
2018-09-08T03:53:14.478Z,7.2
2018-09-08T03:54:16.061Z,7.2
2018-09-08T03:55:17.619Z,7.2
2018-09-08T03:56:19.201Z,7.2
2018-09-08T03:57:20.767Z,7.2
2018-09-08T03:58:22.172Z,7.2
2018-09-08T03:59:23.733Z,7.2
2018-09-08T04:00:25.304Z,7.2
2018-09-08T04:01:26.859Z,7.2
2018-09-08T04:02:28.455Z,7.2
2018-09-08T04:03:30.014Z,7.2
2018-09-08T04:04:31.584Z,7.2
2018-09-08T04:05:33.533Z,7.2
2018-09-08T04:06:35.190Z,7.2
2018-09-08T04:07:36.764Z,7.2
2018-09-08T04:08:38.332Z,7.2
2018-09-08T04:09:39.953Z,7.2
2018-09-08T04:10:41.496Z,7.2
2018-09-08T04:11:43.084Z,7.2
2018-09-08T04:12:44.630Z,7.3
2018-09-08T04:13:46.210Z,7.3
2018-09-08T04:14:47.784Z,7.3
2018-09-08T04:15:49.357Z,7.3
2018-09-08T04:16:50.768Z,7.3
2018-09-08T04:17:52.357Z,7.4
2018-09-08T04:18:53.921Z,7.4
2018-09-08T04:19:55.524Z,7.5
2018-09-08T04:20:57.077Z,7.5
2018-09-08T04:21:58.655Z,7.6
2018-09-08T04:23:00.235Z,7.6
2018-09-08T04:24:02.204Z,7.7
2018-09-08T04:25:03.681Z,7.7
2018-09-08T04:26:05.235Z,7.7
2018-09-08T04:27:06.788Z,7.8
2018-09-08T04:28:08.344Z,7.8
2018-09-08T04:29:09.904Z,7.8
2018-09-08T04:30:11.324Z,7.9
2018-09-08T04:31:12.888Z,7.8
2018-09-08T04:32:14.287Z,7.9
2018-09-08T04:33:15.859Z,7.9
2018-09-08T04:34:17.422Z,7.9
2018-09-08T04:35:18.818Z,7.9
2018-09-08T04:36:20.433Z,7.9
2018-09-08T04:37:21.986Z,7.9
2018-09-08T04:38:23.564Z,7.9
2018-09-08T04:39:25.121Z,7.9
2018-09-08T04:40:26.709Z,7.9
2018-09-08T04:41:28.265Z,7.9
2018-09-08T04:42:29.834Z,7.9
2018-09-08T04:43:31.247Z,7.9
2018-09-08T04:44:32.852Z,7.9
2018-09-08T04:45:34.257Z,7.9
2018-09-08T04:46:35.837Z,7.9
2018-09-08T04:47:37.437Z,7.9
2018-09-08T04:48:38.845Z,7.9
2018-09-08T04:49:40.232Z,7.9
2018-09-08T04:50:41.807Z,7.9
2018-09-08T04:51:43.375Z,7.9
2018-09-08T04:52:44.960Z,7.9
2018-09-08T04:53:46.360Z,7.9
2018-09-08T04:54:47.923Z,7.9
2018-09-08T04:55:49.521Z,7.9
2018-09-08T04:56:51.080Z,7.9
2018-09-08T04:57:52.486Z,7.9
2018-09-08T04:58:54.048Z,7.9
2018-09-08T04:59:55.480Z,7.9
2018-09-08T05:00:57.065Z,7.9
2018-09-08T05:01:58.664Z,7.9
2018-09-08T05:02:59.917Z,7.9
2018-09-08T05:04:01.505Z,7.9
2018-09-08T05:05:03.075Z,7.9
2018-09-08T05:06:04.471Z,7.9
2018-09-08T05:07:06.055Z,7.9
2018-09-08T05:08:07.637Z,7.9
2018-09-08T05:09:10.053Z,7.9
2018-09-08T05:10:11.486Z,7.9
2018-09-08T05:11:13.062Z,7.9
2018-09-08T05:12:14.640Z,7.9
2018-09-08T05:13:16.199Z,7.9
2018-09-08T05:14:17.595Z,7.9
2018-09-08T05:15:19.012Z,7.9
2018-09-08T05:16:20.604Z,7.9
2018-09-08T05:17:22.180Z,7.9
2018-09-08T05:18:23.776Z,7.9
2018-09-08T05:19:25.379Z,7.9
2018-09-08T05:20:26.953Z,7.9
2018-09-08T05:21:28.520Z,7.9
2018-09-08T05:22:30.094Z,7.9
2018-09-08T05:23:31.655Z,7.9
2018-09-08T05:24:33.217Z,7.9
2018-09-08T05:25:34.833Z,7.9
2018-09-08T05:26:36.405Z,7.9
2018-09-08T05:27:37.993Z,7.9
2018-09-08T05:28:40.148Z,7.9
2018-09-08T05:29:41.576Z,7.8
2018-09-08T05:30:43.140Z,7.8
2018-09-08T05:31:44.727Z,7.8
2018-09-08T05:32:46.286Z,7.7
2018-09-08T05:33:47.836Z,7.6
2018-09-08T05:34:49.477Z,7.5
2018-09-08T05:35:51.053Z,7.4
2018-09-08T05:36:52.630Z,7.3
2018-09-08T05:37:54.182Z,7.2
2018-09-08T05:38:55.755Z,7.2
2018-09-08T05:39:57.329Z,7.2
2018-09-08T05:40:58.917Z,7.2
2018-09-08T05:42:00.467Z,7.2
2018-09-08T05:43:02.483Z,7.2
2018-09-08T05:44:04.141Z,7.2
2018-09-08T05:45:05.712Z,7.2
2018-09-08T05:46:07.307Z,7.2
2018-09-08T05:47:08.891Z,7.2
2018-09-08T05:48:10.465Z,7.2
2018-09-08T05:49:11.711Z,7.2
2018-09-08T05:50:13.276Z,7.2
2018-09-08T05:51:14.826Z,7.2
2018-09-08T05:52:16.396Z,7.2
2018-09-08T05:53:17.965Z,7.2
2018-09-08T05:54:19.547Z,7.2
2018-09-08T05:55:20.934Z,7.2
2018-09-08T05:56:22.486Z,7.2
2018-09-08T05:57:24.088Z,7.2
2018-09-08T05:58:26.098Z,7.2
2018-09-08T05:59:27.671Z,7.2
2018-09-08T06:00:29.642Z,7.2
2018-09-08T06:01:31.274Z,7.2
2018-09-08T06:02:32.883Z,7.2
2018-09-08T06:03:34.486Z,7.2
2018-09-08T06:04:36.082Z,7.2
2018-09-08T06:05:37.486Z,7.2
2018-09-08T06:06:39.074Z,7.2
2018-09-08T06:07:40.635Z,7.2
2018-09-08T06:08:42.191Z,7.2
2018-09-08T06:09:43.775Z,7.2
2018-09-08T06:10:45.365Z,7.2
2018-09-08T06:11:46.942Z,7.2
2018-09-08T06:12:48.379Z,7.2
2018-09-08T06:13:49.778Z,7.3
2018-09-08T06:14:51.188Z,7.3
2018-09-08T06:15:52.767Z,7.3
2018-09-08T06:16:54.336Z,7.3
2018-09-08T06:17:55.934Z,7.3
2018-09-08T06:18:57.511Z,7.3
2018-09-08T06:19:59.104Z,7.3
2018-09-08T06:21:00.680Z,7.4
2018-09-08T06:22:02.260Z,7.4
2018-09-08T06:23:03.835Z,7.4
2018-09-08T06:24:05.415Z,7.5
2018-09-08T06:25:07.023Z,7.5
2018-09-08T06:26:08.950Z,7.5
2018-09-08T06:27:10.754Z,7.6
2018-09-08T06:28:12.341Z,7.6
2018-09-08T06:29:13.921Z,7.7
2018-09-08T06:30:15.637Z,7.8
2018-09-08T06:31:17.201Z,7.8
2018-09-08T06:32:18.829Z,7.8
2018-09-08T06:33:20.692Z,7.8
2018-09-08T06:34:22.266Z,7.8
2018-09-08T06:35:24.494Z,7.9
2018-09-08T06:36:26.154Z,7.8
2018-09-08T06:37:27.746Z,7.9
2018-09-08T06:38:29.311Z,7.9
2018-09-08T06:39:30.743Z,7.8
2018-09-08T06:40:32.324Z,7.9
2018-09-08T06:41:33.745Z,7.9
2018-09-08T06:42:35.306Z,7.8
2018-09-08T06:43:36.882Z,7.8
2018-09-08T06:44:38.695Z,7.9
2018-09-08T06:45:40.284Z,7.9
2018-09-08T06:46:41.848Z,7.9
2018-09-08T06:47:43.433Z,7.9
2018-09-08T06:48:45.005Z,7.9
2018-09-08T06:49:46.588Z,7.9
2018-09-08T06:50:48.156Z,7.9
2018-09-08T06:51:49.742Z,7.9
2018-09-08T06:52:51.184Z,7.9
2018-09-08T06:53:52.836Z,7.9
2018-09-08T06:54:54.401Z,7.9
2018-09-08T06:55:56.016Z,7.9
2018-09-08T06:56:57.591Z,7.9
2018-09-08T06:57:59.846Z,7.9
2018-09-08T06:59:01.367Z,7.9
2018-09-08T07:00:02.802Z,7.9
2018-09-08T07:01:04.408Z,7.9
2018-09-08T07:02:05.975Z,7.9
2018-09-08T07:03:07.562Z,7.9
2018-09-08T07:04:09.131Z,7.9
2018-09-08T07:05:10.759Z,7.9
2018-09-08T07:06:12.475Z,7.9
2018-09-08T07:07:14.097Z,7.9
2018-09-08T07:08:15.678Z,7.9
2018-09-08T07:09:17.260Z,7.9
2018-09-08T07:10:18.867Z,7.9
2018-09-08T07:11:20.451Z,7.9
2018-09-08T07:12:22.015Z,7.8
2018-09-08T07:13:23.426Z,7.8
2018-09-08T07:14:25.211Z,7.8
2018-09-08T07:15:26.607Z,7.8
2018-09-08T07:16:28.186Z,7.7
2018-09-08T07:17:29.781Z,7.6
2018-09-08T07:18:31.377Z,7.6
2018-09-08T07:19:32.946Z,7.5
2018-09-08T07:20:34.574Z,7.4
2018-09-08T07:21:36.002Z,7.3
2018-09-08T07:22:37.582Z,7.2
2018-09-08T07:23:39.206Z,7.2
2018-09-08T07:24:40.624Z,7.2
2018-09-08T07:25:42.218Z,7.2
2018-09-08T07:26:43.797Z,7.2
2018-09-08T07:27:45.371Z,7.2
2018-09-08T07:28:46.938Z,7.2
2018-09-08T07:29:48.519Z,7.2
2018-09-08T07:30:50.111Z,7.2
2018-09-08T07:31:51.695Z,7.2
2018-09-08T07:32:53.273Z,7.2
2018-09-08T07:33:54.685Z,7.2
2018-09-08T07:34:56.124Z,7.2
2018-09-08T07:35:57.700Z,7.2
2018-09-08T07:36:59.133Z,7.2
2018-09-08T07:38:00.885Z,7.2
2018-09-08T07:39:02.524Z,7.2
2018-09-08T07:40:04.141Z,7.2
2018-09-08T07:41:05.569Z,7.2
2018-09-08T07:42:07.177Z,7.2
2018-09-08T07:43:08.633Z,7.2
2018-09-08T07:44:10.240Z,7.2
2018-09-08T07:45:11.663Z,7.2
2018-09-08T07:46:13.262Z,7.2
2018-09-08T07:47:14.846Z,7.2
2018-09-08T07:48:16.414Z,7.2
2018-09-08T07:49:17.996Z,7.2
2018-09-08T07:50:19.586Z,7.2
2018-09-08T07:51:21.007Z,7.2
2018-09-08T07:52:22.617Z,7.2
2018-09-08T07:53:24.946Z,7.2
2018-09-08T07:54:26.685Z,7.2
2018-09-08T07:55:28.567Z,7.2
2018-09-08T07:56:30.222Z,7.2
2018-09-08T07:57:31.628Z,7.3
2018-09-08T07:58:33.260Z,7.3
2018-09-08T07:59:34.867Z,7.3
2018-09-08T08:00:36.467Z,7.4
2018-09-08T08:01:38.050Z,7.4
2018-09-08T08:02:39.628Z,7.4
2018-09-08T08:03:41.226Z,7.5
2018-09-08T08:04:42.807Z,7.5
2018-09-08T08:05:44.446Z,7.6
2018-09-08T08:06:46.343Z,7.6
2018-09-08T08:07:47.992Z,7.6
2018-09-08T08:08:49.603Z,7.7
2018-09-08T08:09:51.056Z,7.7
2018-09-08T08:10:52.670Z,7.8
2018-09-08T08:11:54.267Z,7.8
2018-09-08T08:12:55.857Z,7.8
2018-09-08T08:13:57.480Z,7.8
2018-09-08T08:14:58.911Z,7.8
2018-09-08T08:16:00.479Z,7.8
2018-09-08T08:17:02.103Z,7.8
2018-09-08T08:18:03.554Z,7.8
2018-09-08T08:19:05.159Z,7.8
2018-09-08T08:20:06.738Z,7.9
2018-09-08T08:21:08.336Z,7.9
2018-09-08T08:22:09.954Z,7.9
2018-09-08T08:23:11.870Z,7.9
2018-09-08T08:24:13.461Z,7.8
2018-09-08T08:25:14.888Z,7.9
2018-09-08T08:26:16.493Z,7.9
2018-09-08T08:27:18.070Z,7.9
2018-09-08T08:28:19.496Z,7.9
2018-09-08T08:29:21.082Z,7.9
2018-09-08T08:30:22.675Z,7.9
2018-09-08T08:31:24.291Z,7.9
2018-09-08T08:32:25.867Z,7.9
2018-09-08T08:33:27.328Z,7.8
2018-09-08T08:34:28.952Z,7.8
2018-09-08T08:35:30.516Z,7.9
2018-09-08T08:36:32.114Z,7.8
2018-09-08T08:37:33.890Z,7.8
2018-09-08T08:38:35.456Z,7.8
2018-09-08T08:39:37.049Z,7.8
2018-09-08T08:40:38.626Z,7.8
2018-09-08T08:41:40.208Z,7.8
2018-09-08T08:42:41.805Z,7.8
2018-09-08T08:43:43.395Z,7.8
2018-09-08T08:44:44.967Z,7.8
2018-09-08T08:45:46.540Z,7.9
2018-09-08T08:46:48.167Z,7.9
2018-09-08T08:47:49.758Z,7.9
2018-09-08T08:48:51.323Z,7.9
2018-09-08T08:49:53.096Z,7.9
2018-09-08T08:50:55.005Z,7.9
2018-09-08T08:51:56.588Z,7.9
2018-09-08T08:52:58.171Z,7.9
2018-09-08T08:53:59.768Z,7.9
2018-09-08T08:55:01.387Z,7.9
2018-09-08T08:56:02.957Z,7.9
2018-09-08T08:57:04.545Z,7.8
2018-09-08T08:58:06.142Z,7.9
2018-09-08T08:59:07.758Z,7.8
2018-09-08T09:00:09.439Z,7.8
2018-09-08T09:01:10.847Z,7.8
2018-09-08T09:02:12.405Z,7.8
2018-09-08T09:03:13.982Z,7.8
2018-09-08T09:04:15.645Z,7.8
2018-09-08T09:05:17.176Z,7.8
2018-09-08T09:06:19.028Z,7.8
2018-09-08T09:07:20.473Z,7.8
2018-09-08T09:08:25.161Z,7.8
2018-09-08T09:09:26.595Z,7.8
2018-09-08T09:10:28.169Z,7.7
2018-09-08T09:11:29.796Z,7.7
2018-09-08T09:12:31.441Z,7.6
2018-09-08T09:13:34.020Z,7.6
2018-09-08T09:14:38.037Z,7.5
2018-09-08T09:15:39.632Z,7.4
2018-09-08T09:16:41.237Z,7.3
2018-09-08T09:17:42.823Z,7.2
2018-09-08T09:18:47.904Z,7.2
2018-09-08T09:19:49.658Z,7.2
2018-09-08T09:20:51.277Z,7.2
2018-09-08T09:21:52.844Z,7.2
2018-09-08T09:22:54.429Z,7.2
2018-09-08T09:23:56.279Z,7.2
2018-09-08T09:24:58.735Z,7.2
2018-09-08T09:26:00.401Z,7.2
2018-09-08T09:27:02.008Z,7.2
2018-09-08T09:28:03.479Z,7.2
2018-09-08T09:29:04.908Z,7.2
2018-09-08T09:30:06.495Z,7.2
2018-09-08T09:31:08.087Z,7.2
2018-09-08T09:32:09.684Z,7.2
2018-09-08T09:33:11.246Z,7.2
2018-09-08T09:34:12.807Z,7.2
2018-09-08T09:35:14.399Z,7.2
2018-09-08T09:36:15.969Z,7.2
2018-09-08T09:37:18.044Z,7.2
2018-09-08T09:38:19.719Z,7.2
2018-09-08T09:39:21.285Z,7.2
2018-09-08T09:40:22.878Z,7.2
2018-09-08T09:41:24.481Z,7.2
2018-09-08T09:42:26.071Z,7.2
2018-09-08T09:43:27.663Z,7.2
2018-09-08T09:44:29.102Z,7.2
2018-09-08T09:45:30.506Z,7.2
2018-09-08T09:46:32.099Z,7.2
2018-09-08T09:47:33.723Z,7.3
2018-09-08T09:48:35.299Z,7.3
2018-09-08T09:49:36.872Z,7.3
2018-09-08T09:50:38.454Z,7.3
2018-09-08T09:51:39.876Z,7.3
2018-09-08T09:52:41.488Z,7.4
2018-09-08T09:53:42.887Z,7.4
2018-09-08T09:54:44.487Z,7.4
2018-09-08T09:55:45.928Z,7.4
2018-09-08T09:56:47.503Z,7.4
2018-09-08T09:57:49.097Z,7.4
2018-09-08T09:58:50.512Z,7.4
2018-09-08T09:59:52.088Z,7.4
2018-09-08T10:00:53.906Z,7.4
2018-09-08T10:01:55.526Z,7.4
2018-09-08T10:02:57.106Z,7.4
2018-09-08T10:03:58.718Z,7.5
2018-09-08T10:05:00.326Z,7.5
2018-09-08T10:06:01.928Z,7.5
2018-09-08T10:07:03.527Z,7.6
2018-09-08T10:08:05.140Z,7.6
2018-09-08T10:09:06.735Z,7.7
2018-09-08T10:10:08.363Z,7.7
2018-09-08T10:11:09.955Z,7.8
2018-09-08T10:12:12.184Z,7.8
2018-09-08T10:13:13.864Z,7.8
2018-09-08T10:14:15.436Z,7.8
2018-09-08T10:15:17.096Z,7.8
2018-09-08T10:16:18.675Z,7.8
2018-09-08T10:17:20.087Z,7.8
2018-09-08T10:18:21.676Z,7.8
2018-09-08T10:19:23.264Z,7.8
2018-09-08T10:20:24.729Z,7.8
2018-09-08T10:21:26.330Z,7.9
2018-09-08T10:22:27.922Z,7.9
2018-09-08T10:23:30.189Z,7.9
2018-09-08T10:24:31.888Z,7.9
2018-09-08T10:25:33.455Z,7.9
2018-09-08T10:26:35.052Z,7.9
2018-09-08T10:27:36.651Z,7.9
2018-09-08T10:28:38.248Z,7.9
2018-09-08T10:29:40.713Z,7.9
2018-09-08T10:30:42.526Z,7.9
2018-09-08T10:31:44.196Z,7.9
2018-09-08T10:32:45.778Z,7.9
2018-09-08T10:33:47.199Z,7.9
2018-09-08T10:34:49.071Z,7.9
2018-09-08T10:35:50.726Z,7.9
2018-09-08T10:36:52.546Z,7.8
2018-09-08T10:37:53.808Z,7.8
2018-09-08T10:38:55.412Z,7.8
2018-09-08T10:39:57.007Z,7.8
2018-09-08T10:40:58.591Z,7.8
2018-09-08T10:42:00.179Z,7.8
2018-09-08T10:43:01.776Z,7.8
2018-09-08T10:44:03.408Z,7.8
2018-09-08T10:45:05.017Z,7.8
2018-09-08T10:46:06.618Z,7.8
2018-09-08T10:47:08.180Z,7.8
2018-09-08T10:48:09.763Z,7.8
2018-09-08T10:49:11.356Z,7.8
2018-09-08T10:50:12.931Z,7.8
2018-09-08T10:51:14.501Z,7.8
2018-09-08T10:52:16.070Z,7.8
2018-09-08T10:53:17.666Z,7.8
2018-09-08T10:54:19.077Z,7.8
2018-09-08T10:55:20.679Z,7.8
2018-09-08T10:56:22.338Z,7.7
2018-09-08T10:57:23.927Z,7.6
2018-09-08T10:58:25.525Z,7.5
2018-09-08T10:59:27.153Z,7.4
2018-09-08T11:00:28.737Z,7.3
2018-09-08T11:01:31.316Z,7.2
2018-09-08T11:02:34.830Z,7.2
2018-09-08T11:03:36.547Z,7.2
2018-09-08T11:04:38.127Z,7.2
2018-09-08T11:05:39.545Z,7.2
2018-09-08T11:06:41.127Z,7.2
2018-09-08T11:07:42.727Z,7.2
2018-09-08T11:08:44.122Z,7.2
2018-09-08T11:09:45.540Z,7.2
2018-09-08T11:10:47.129Z,7.2
2018-09-08T11:11:48.740Z,7.2
2018-09-08T11:12:50.314Z,7.2
2018-09-08T11:13:51.726Z,7.2
2018-09-08T11:14:53.333Z,7.2
2018-09-08T11:15:55.458Z,7.2
2018-09-08T11:16:57.070Z,7.2
2018-09-08T11:17:58.664Z,7.2
2018-09-08T11:19:00.251Z,7.2
2018-09-08T11:20:01.838Z,7.2
2018-09-08T11:21:03.405Z,7.2
2018-09-08T11:22:04.989Z,7.2
2018-09-08T11:23:06.782Z,7.2
2018-09-08T11:24:08.357Z,7.2
2018-09-08T11:25:09.959Z,7.2
2018-09-08T11:26:11.535Z,7.2
2018-09-08T11:27:13.124Z,7.2
2018-09-08T11:28:14.532Z,7.2
2018-09-08T11:29:16.128Z,7.2
2018-09-08T11:30:17.704Z,7.2
2018-09-08T11:31:19.140Z,7.2
2018-09-08T11:32:20.745Z,7.2
2018-09-08T11:33:22.313Z,7.3
2018-09-08T11:34:23.901Z,7.3
2018-09-08T11:35:25.690Z,7.3
2018-09-08T11:36:27.109Z,7.3
2018-09-08T11:37:28.677Z,7.3
2018-09-08T11:38:31.148Z,7.4
2018-09-08T11:39:32.780Z,7.4
2018-09-08T11:40:34.349Z,7.4
2018-09-08T11:41:35.931Z,7.5
2018-09-08T11:42:37.517Z,7.5
2018-09-08T11:43:38.943Z,7.6
2018-09-08T11:44:40.737Z,7.6
2018-09-08T11:45:42.342Z,7.7
2018-09-08T11:46:43.931Z,7.7
2018-09-08T11:47:45.541Z,7.7
2018-09-08T11:48:47.148Z,7.8
2018-09-08T11:49:48.845Z,7.8
2018-09-08T11:50:50.574Z,7.8
2018-09-08T11:51:52.255Z,7.8
2018-09-08T11:52:54.348Z,7.8
2018-09-08T11:53:56.039Z,7.8
2018-09-08T11:54:57.637Z,7.8
2018-09-08T11:55:59.293Z,7.8
2018-09-08T11:57:01.004Z,7.9
2018-09-08T11:58:02.594Z,7.9
2018-09-08T11:59:04.195Z,7.9
2018-09-08T12:00:05.775Z,7.8
2018-09-08T12:01:07.350Z,7.9
2018-09-08T12:02:09.381Z,7.8
2018-09-08T12:03:11.753Z,7.8
2018-09-08T12:04:13.472Z,7.8
2018-09-08T12:05:15.068Z,7.8
2018-09-08T12:06:16.768Z,7.8
2018-09-08T12:07:18.356Z,7.8
2018-09-08T12:08:19.942Z,7.8
2018-09-08T12:09:21.538Z,7.9
2018-09-08T12:10:22.948Z,7.9
2018-09-08T12:11:24.538Z,7.9
2018-09-08T12:12:26.137Z,7.9
2018-09-08T12:13:27.734Z,7.9
2018-09-08T12:14:29.331Z,7.9
2018-09-08T12:15:31.267Z,7.9
2018-09-08T12:16:32.889Z,7.9
2018-09-08T12:17:34.489Z,7.9
2018-09-08T12:18:36.077Z,7.9
2018-09-08T12:19:37.508Z,7.9
2018-09-08T12:20:39.112Z,7.9
2018-09-08T12:21:40.699Z,7.9
2018-09-08T12:22:42.297Z,7.9
2018-09-08T12:23:43.878Z,7.9
2018-09-08T12:24:45.481Z,7.9
2018-09-08T12:25:47.088Z,7.9
2018-09-08T12:26:48.700Z,7.9
2018-09-08T12:27:50.444Z,7.9
2018-09-08T12:28:51.860Z,7.9
2018-09-08T12:29:53.140Z,7.9
2018-09-08T12:30:55.408Z,7.9
2018-09-08T12:31:57.294Z,7.9
2018-09-08T12:32:59.173Z,7.9
2018-09-08T12:34:00.769Z,7.9
2018-09-08T12:35:02.401Z,7.9
2018-09-08T12:36:03.820Z,7.9
2018-09-08T12:37:05.630Z,7.8
2018-09-08T12:38:07.072Z,7.8
2018-09-08T12:39:08.663Z,7.8
2018-09-08T12:40:10.283Z,7.8
2018-09-08T12:41:11.870Z,7.8
2018-09-08T12:42:13.482Z,7.8
2018-09-08T12:43:15.078Z,7.7
2018-09-08T12:44:16.692Z,7.6
2018-09-08T12:45:18.296Z,7.6
2018-09-08T12:46:19.895Z,7.5
2018-09-08T12:47:21.480Z,7.4
2018-09-08T12:48:23.074Z,7.3
2018-09-08T12:49:24.529Z,7.3
2018-09-08T12:50:26.122Z,7.2
2018-09-08T12:51:27.722Z,7.2
2018-09-08T12:52:29.343Z,7.2
2018-09-08T12:53:31.566Z,7.2
2018-09-08T12:54:33.169Z,7.2
2018-09-08T12:55:34.771Z,7.2
2018-09-08T12:56:36.379Z,7.2
2018-09-08T12:57:37.995Z,7.2
2018-09-08T12:58:39.637Z,7.2
2018-09-08T12:59:41.223Z,7.2
2018-09-08T13:00:42.822Z,7.2
2018-09-08T13:01:44.418Z,7.2
2018-09-08T13:02:45.989Z,7.2
2018-09-08T13:03:47.583Z,7.2
2018-09-08T13:04:49.010Z,7.2
2018-09-08T13:05:50.601Z,7.2
2018-09-08T13:06:52.222Z,7.2
2018-09-08T13:07:53.809Z,7.2
2018-09-08T13:08:55.540Z,7.2
2018-09-08T13:09:57.307Z,7.2
2018-09-08T13:10:58.760Z,7.2
2018-09-08T13:12:00.400Z,7.2
2018-09-08T13:13:02.002Z,7.2
2018-09-08T13:14:03.642Z,7.2
2018-09-08T13:15:05.348Z,7.2
2018-09-08T13:16:06.948Z,7.2
2018-09-08T13:17:08.529Z,7.2
2018-09-08T13:18:10.119Z,7.2
2018-09-08T13:19:11.552Z,7.2
2018-09-08T13:20:13.108Z,7.3
2018-09-08T13:21:14.710Z,7.3
2018-09-08T13:22:16.273Z,7.3
2018-09-08T13:23:17.679Z,7.3
2018-09-08T13:24:19.260Z,7.3
2018-09-08T13:25:20.716Z,7.3
2018-09-08T13:26:22.318Z,7.3
2018-09-08T13:27:23.900Z,7.3
2018-09-08T13:28:25.357Z,7.3
2018-09-08T13:29:27.004Z,7.4
2018-09-08T13:30:28.582Z,7.4
2018-09-08T13:31:30.162Z,7.4
2018-09-08T13:32:31.758Z,7.5
2018-09-08T13:33:33.334Z,7.5
2018-09-08T13:34:34.952Z,7.6
2018-09-08T13:35:36.568Z,7.6
2018-09-08T13:36:38.128Z,7.6
2018-09-08T13:37:40.215Z,7.7
2018-09-08T13:38:41.808Z,7.7
2018-09-08T13:39:44.359Z,7.7
2018-09-08T13:40:45.950Z,7.7
2018-09-08T13:41:47.520Z,7.7
2018-09-08T13:42:48.934Z,7.8
2018-09-08T13:43:50.340Z,7.8
2018-09-08T13:44:51.910Z,7.8
2018-09-08T13:45:53.541Z,7.8
2018-09-08T13:46:55.453Z,7.8
2018-09-08T13:47:57.043Z,7.8
2018-09-08T13:48:58.625Z,7.8
2018-09-08T13:49:59.849Z,7.8
2018-09-08T13:51:01.098Z,7.8
2018-09-08T13:52:02.680Z,7.8
2018-09-08T13:53:04.245Z,7.8
2018-09-08T13:54:05.827Z,7.8
2018-09-08T13:55:07.229Z,7.8
2018-09-08T13:56:08.865Z,7.9
2018-09-08T13:57:10.719Z,7.9
2018-09-08T13:58:12.151Z,7.8
2018-09-08T13:59:13.747Z,7.8
2018-09-08T14:00:15.309Z,7.8
2018-09-08T14:01:16.891Z,7.8
2018-09-08T14:02:18.319Z,7.8
2018-09-08T14:03:19.899Z,7.8
2018-09-08T14:04:21.913Z,7.8
2018-09-08T14:05:23.498Z,7.8
2018-09-08T14:06:25.100Z,7.8
2018-09-08T14:07:26.685Z,7.8
2018-09-08T14:08:28.255Z,7.8